createdAt,value
2019-03-25T00:02:25.828Z,20.03
2019-03-25T00:04:55.722Z,12.00
2019-03-25T00:07:25.596Z,19.83
2019-03-25T00:09:55.495Z,17.17
2019-03-25T00:12:25.710Z,14.43
2019-03-25T00:14:55.626Z,18.50
2019-03-25T00:17:25.486Z,18.17
2019-03-25T00:19:55.357Z,21.87
2019-03-25T00:22:25.249Z,22.33
2019-03-25T00:24:55.147Z,15.60
2019-03-25T00:27:25.051Z,18.07
2019-03-25T00:29:55.000Z,16.50
2019-03-25T00:32:24.902Z,17.73
2019-03-25T00:34:54.783Z,25.17
2019-03-25T00:37:24.643Z,21.00
2019-03-25T00:39:54.512Z,14.70
2019-03-25T00:42:24.412Z,17.93
2019-03-25T00:44:54.625Z,21.57
2019-03-25T00:47:24.523Z,23.90
2019-03-25T00:49:54.750Z,24.33
2019-03-25T00:52:24.791Z,14.70
2019-03-25T00:54:54.655Z,22.60
2019-03-25T00:57:24.557Z,16.00
2019-03-25T00:59:54.454Z,14.33
2019-03-25T01:02:24.342Z,14.30
2019-03-25T01:04:54.244Z,22.67
2019-03-25T01:07:24.099Z,17.03
2019-03-25T01:09:54.007Z,24.40
2019-03-25T01:12:24.203Z,16.43
2019-03-25T01:14:54.116Z,19.93
2019-03-25T01:17:24.035Z,23.87
2019-03-25T01:19:54.254Z,21.33
2019-03-25T01:22:24.115Z,21.07
2019-03-25T01:25:01.722Z,16.53
2019-03-25T01:27:25.647Z,19.60
2019-03-25T01:29:55.587Z,14.30
2019-03-25T01:32:25.490Z,20.57
2019-03-25T01:34:55.377Z,23.37
2019-03-25T01:37:25.267Z,22.83
2019-03-25T01:39:55.208Z,30.70
2019-03-25T01:42:25.371Z,25.27
2019-03-25T01:44:55.271Z,29.30
2019-03-25T01:47:25.138Z,28.17
2019-03-25T01:49:55.054Z,22.70
2019-03-25T01:52:24.926Z,22.57
2019-03-25T01:54:54.924Z,15.30
2019-03-25T01:57:24.786Z,31.63
2019-03-25T01:59:54.679Z,24.53
2019-03-25T02:02:24.560Z,27.80
2019-03-25T02:04:54.471Z,18.83
2019-03-25T02:07:24.367Z,29.90
2019-03-25T02:09:54.250Z,21.73
2019-03-25T02:12:24.140Z,22.27
2019-03-25T02:14:54.381Z,32.13
2019-03-25T02:17:24.545Z,28.43
2019-03-25T02:19:54.460Z,23.73
2019-03-25T02:22:24.355Z,16.43
2019-03-25T02:24:54.258Z,24.97
2019-03-25T02:27:24.533Z,19.93
2019-03-25T02:29:54.439Z,21.73
2019-03-25T02:32:24.319Z,21.37
2019-03-25T02:34:54.318Z,24.67
2019-03-25T02:37:24.190Z,22.40
2019-03-25T02:39:54.080Z,29.40
2019-03-25T02:42:23.962Z,21.40
2019-03-25T02:44:53.858Z,20.00
2019-03-25T02:47:23.766Z,29.40
2019-03-25T02:49:53.682Z,20.87
2019-03-25T02:52:23.564Z,28.17
2019-03-25T02:54:53.436Z,22.87
2019-03-25T02:57:23.335Z,28.00
2019-03-25T02:59:53.212Z,25.43
2019-03-25T03:02:23.118Z,22.70
2019-03-25T03:04:52.987Z,21.60
2019-03-25T03:07:22.846Z,22.30
2019-03-25T03:09:53.137Z,20.07
2019-03-25T03:12:23.028Z,20.83
2019-03-25T03:14:52.911Z,23.10
2019-03-25T03:17:22.824Z,22.07
2019-03-25T03:19:55.226Z,23.50
2019-03-25T03:22:24.316Z,19.80
2019-03-25T03:24:54.224Z,25.33
2019-03-25T03:27:24.124Z,19.67
2019-03-25T03:29:54.391Z,21.67
2019-03-25T03:32:24.291Z,23.70
2019-03-25T03:34:54.329Z,15.50
2019-03-25T03:37:24.262Z,25.97
2019-03-25T03:39:54.477Z,29.63
2019-03-25T03:42:24.500Z,27.20
2019-03-25T03:44:54.378Z,24.93
2019-03-25T03:47:24.264Z,26.83
2019-03-25T03:49:54.144Z,29.40
2019-03-25T03:52:24.154Z,22.50
2019-03-25T03:54:54.393Z,28.13
2019-03-25T03:57:24.979Z,29.57
2019-03-25T03:59:55.475Z,28.73
2019-03-25T04:02:25.334Z,19.93
2019-03-25T04:04:55.226Z,26.63
2019-03-25T04:07:25.096Z,26.83
2019-03-25T04:09:54.979Z,28.73
2019-03-25T04:12:24.879Z,17.77
2019-03-25T04:14:54.767Z,21.67
2019-03-25T04:17:24.632Z,19.17
2019-03-25T04:19:54.545Z,16.47
2019-03-25T04:22:24.440Z,23.97
2019-03-25T04:24:54.325Z,22.60
2019-03-25T04:27:24.233Z,21.53
2019-03-25T04:29:54.147Z,33.63
2019-03-25T04:32:24.009Z,26.33
2019-03-25T04:34:53.923Z,19.70
2019-03-25T04:37:23.809Z,28.37
2019-03-25T04:39:53.696Z,24.13
2019-03-25T04:42:23.606Z,22.50
2019-03-25T04:44:53.489Z,20.07
2019-03-25T04:47:23.375Z,29.60
2019-03-25T04:49:53.267Z,27.50
2019-03-25T04:52:23.473Z,17.07
2019-03-25T04:54:53.339Z,28.07
2019-03-25T04:57:23.230Z,28.23
2019-03-25T04:59:53.131Z,20.83
2019-03-25T05:02:23.367Z,22.77
2019-03-25T05:04:53.265Z,21.80
2019-03-25T05:07:23.166Z,20.60
2019-03-25T05:09:53.046Z,15.57
2019-03-25T05:12:22.956Z,28.97
2019-03-25T05:14:52.818Z,26.23
2019-03-25T05:17:22.711Z,26.27
2019-03-25T05:19:52.559Z,19.33
2019-03-25T05:22:22.758Z,21.73
2019-03-25T05:24:52.631Z,20.80
2019-03-25T05:27:22.525Z,33.10
2019-03-25T05:29:52.467Z,21.20
2019-03-25T05:32:22.367Z,21.27
2019-03-25T05:34:52.229Z,21.10
2019-03-25T05:37:22.137Z,18.27
2019-03-25T05:39:52.024Z,29.07
2019-03-25T05:42:21.913Z,27.70
2019-03-25T05:44:51.811Z,21.00
2019-03-25T05:47:21.717Z,24.97
2019-03-25T05:49:51.592Z,20.73
2019-03-25T05:52:21.505Z,23.10
2019-03-25T05:54:51.402Z,25.47
2019-03-25T05:57:21.304Z,29.33
2019-03-25T05:59:51.178Z,26.67
2019-03-25T06:02:21.500Z,22.50
2019-03-25T06:04:51.393Z,22.77
2019-03-25T06:07:21.274Z,23.70
2019-03-25T06:09:51.158Z,25.00
2019-03-25T06:12:21.047Z,19.57
2019-03-25T06:14:50.920Z,30.30
2019-03-25T06:17:20.801Z,26.37
2019-03-25T06:19:50.675Z,27.13
2019-03-25T06:22:20.558Z,23.60
2019-03-25T06:24:50.663Z,33.63
2019-03-25T06:27:20.556Z,22.63
2019-03-25T06:29:50.477Z,27.67
2019-03-25T06:32:20.415Z,24.23
2019-03-25T06:34:50.286Z,30.70
2019-03-25T06:37:20.178Z,25.23
2019-03-25T06:39:50.066Z,23.93
2019-03-25T06:42:19.982Z,30.20
2019-03-25T06:44:49.858Z,29.67
2019-03-25T06:47:19.775Z,31.10
2019-03-25T06:49:49.952Z,30.00
2019-03-25T06:52:19.850Z,26.43
2019-03-25T06:54:49.727Z,27.10
2019-03-25T06:57:25.552Z,15.57
2019-03-25T06:59:51.220Z,22.30
2019-03-25T07:02:22.135Z,24.20
2019-03-25T07:04:52.016Z,28.43
2019-03-25T07:07:22.272Z,17.87
2019-03-25T07:09:52.170Z,24.87
2019-03-25T07:12:22.870Z,33.43
2019-03-25T07:14:52.876Z,29.87
2019-03-25T07:17:22.744Z,20.33
2019-03-25T07:19:52.645Z,30.23
2019-03-25T07:22:22.535Z,23.77
2019-03-25T07:24:52.797Z,19.90
2019-03-25T07:27:23.009Z,23.77
2019-03-25T07:29:52.917Z,19.73
2019-03-25T07:32:22.931Z,28.57
2019-03-25T07:34:53.104Z,24.93
2019-03-25T07:37:23.771Z,22.03
2019-03-25T07:39:53.634Z,26.30
2019-03-25T07:42:23.837Z,29.13
2019-03-25T07:44:53.743Z,35.17
2019-03-25T07:47:23.840Z,23.57
2019-03-25T07:49:55.050Z,19.07
2019-03-25T07:52:24.994Z,21.17
2019-03-25T07:54:55.204Z,20.40
2019-03-25T07:57:25.108Z,24.77
2019-03-25T07:59:55.483Z,26.40
2019-03-25T08:02:27.217Z,21.10
2019-03-25T08:04:58.694Z,26.73
2019-03-25T08:07:28.834Z,22.13
2019-03-25T08:09:58.708Z,22.70
2019-03-25T08:12:28.628Z,24.07
2019-03-25T08:14:58.630Z,20.77
2019-03-25T08:17:28.901Z,27.20
2019-03-25T08:19:58.797Z,25.43
2019-03-25T08:22:29.000Z,22.93
2019-03-25T08:24:58.911Z,26.13
2019-03-25T08:27:28.795Z,18.30
2019-03-25T08:29:58.721Z,25.50
2019-03-25T08:32:28.696Z,22.87
2019-03-25T08:34:58.571Z,21.73
2019-03-25T08:37:28.497Z,22.73
2019-03-25T08:39:58.688Z,24.23
2019-03-25T08:42:28.781Z,23.10
2019-03-25T08:44:58.680Z,22.77
2019-03-25T08:47:28.580Z,25.97
2019-03-25T08:49:58.462Z,27.93
2019-03-25T08:52:28.374Z,29.77
2019-03-25T08:54:58.533Z,22.00
2019-03-25T08:57:28.465Z,24.10
2019-03-25T08:59:58.342Z,25.87
2019-03-25T09:02:28.513Z,18.87
2019-03-25T09:04:58.413Z,16.87
2019-03-25T09:07:28.643Z,24.80
2019-03-25T09:09:58.551Z,23.50
2019-03-25T09:12:28.429Z,25.97
2019-03-25T09:14:58.338Z,20.90
2019-03-25T09:17:28.516Z,19.07
2019-03-25T09:19:58.436Z,19.33
2019-03-25T09:22:28.305Z,17.63
2019-03-25T09:25:03.695Z,16.07
2019-03-25T09:27:33.624Z,21.83
2019-03-25T09:30:03.917Z,19.53
2019-03-25T09:32:33.819Z,17.73
2019-03-25T09:35:03.715Z,21.97
2019-03-25T09:37:33.902Z,16.50
2019-03-25T09:40:27.928Z,15.33
2019-03-25T09:42:57.820Z,17.40
2019-03-25T09:45:27.728Z,13.60
2019-03-25T09:47:57.613Z,18.80
2019-03-25T09:50:27.852Z,15.33
2019-03-25T09:52:57.770Z,17.50
2019-03-25T09:55:27.664Z,12.90
2019-03-25T09:57:57.553Z,18.17
2019-03-25T10:00:32.242Z,19.40
2019-03-25T10:03:02.440Z,16.50
2019-03-25T10:05:32.426Z,17.53
2019-03-25T10:08:02.314Z,17.23
2019-03-25T10:10:32.212Z,19.43
2019-03-25T10:13:02.095Z,21.63
2019-03-25T10:15:32.001Z,18.03
2019-03-25T10:18:01.902Z,16.47
2019-03-25T10:20:31.813Z,14.57
2019-03-25T10:23:01.675Z,9.10
2019-03-25T10:25:31.549Z,14.17
2019-03-25T10:28:01.455Z,11.53
2019-03-25T10:30:31.369Z,16.20
2019-03-25T10:33:01.306Z,13.17
2019-03-25T10:35:31.557Z,11.40
2019-03-25T10:38:01.445Z,13.77
2019-03-25T10:40:31.360Z,14.90
2019-03-25T10:43:01.246Z,10.90
2019-03-25T10:45:31.500Z,15.13
2019-03-25T10:48:01.392Z,19.03
2019-03-25T10:50:31.274Z,14.27
2019-03-25T10:53:01.146Z,15.70
2019-03-25T10:55:31.060Z,15.20
2019-03-25T10:58:00.937Z,15.53
2019-03-25T11:00:30.859Z,13.07
2019-03-25T11:03:00.713Z,19.07
2019-03-25T11:05:30.925Z,12.30
2019-03-25T11:08:00.849Z,13.53
2019-03-25T11:10:31.055Z,16.37
2019-03-25T11:13:01.047Z,11.30
2019-03-25T11:15:31.284Z,15.43
2019-03-25T11:18:01.164Z,12.70
2019-03-25T11:20:31.038Z,11.67
2019-03-25T11:23:00.946Z,18.23
2019-03-25T11:25:30.822Z,9.47
2019-03-25T11:28:00.707Z,16.43
2019-03-25T11:30:53.673Z,13.00
2019-03-25T11:33:24.390Z,16.37
2019-03-25T11:35:54.281Z,10.67
2019-03-25T11:38:24.276Z,10.80
2019-03-25T11:40:54.188Z,15.67
2019-03-25T11:43:24.096Z,15.70
2019-03-25T11:45:54.541Z,9.83
2019-03-25T11:48:24.395Z,14.77
2019-03-25T11:50:54.599Z,11.70
2019-03-25T11:53:24.474Z,12.13
2019-03-25T11:55:54.363Z,9.70
2019-03-25T11:58:24.243Z,11.90
2019-03-25T12:00:54.120Z,11.27
2019-03-25T12:03:24.024Z,11.60
2019-03-25T12:05:53.932Z,12.67
2019-03-25T12:08:25.048Z,11.30
2019-03-25T12:10:54.926Z,11.67
2019-03-25T12:13:24.839Z,7.77
2019-03-25T12:15:54.777Z,11.23
2019-03-25T12:18:24.657Z,13.97
2019-03-25T12:20:54.887Z,14.70
2019-03-25T12:23:26.465Z,11.33
2019-03-25T12:25:56.442Z,14.67
2019-03-25T12:28:26.327Z,9.07
2019-03-25T12:30:56.259Z,9.07
2019-03-25T12:33:26.175Z,11.97
2019-03-25T12:35:56.072Z,7.37
2019-03-25T12:38:25.981Z,11.97
2019-03-25T12:40:55.886Z,16.20
2019-03-25T12:43:25.797Z,10.73
2019-03-25T12:45:55.697Z,9.63
2019-03-25T12:48:25.576Z,10.93
2019-03-25T12:50:55.463Z,10.63
2019-03-25T12:53:25.357Z,9.67
2019-03-25T12:55:55.343Z,12.43
2019-03-25T12:58:25.235Z,9.33
2019-03-25T13:00:55.109Z,10.10
2019-03-25T13:03:25.020Z,10.03
2019-03-25T13:05:54.955Z,13.67
2019-03-25T13:08:32.789Z,11.00
2019-03-25T13:10:56.485Z,19.80
2019-03-25T13:13:26.374Z,12.97
2019-03-25T13:15:56.291Z,11.53
2019-03-25T13:18:26.190Z,9.40
2019-03-25T13:20:56.061Z,13.23
2019-03-25T13:23:26.027Z,6.93
2019-03-25T13:25:55.940Z,8.90
2019-03-25T13:28:25.889Z,12.57
2019-03-25T13:30:55.745Z,9.93
2019-03-25T13:33:25.685Z,14.17
2019-03-25T13:35:55.609Z,14.73
2019-03-25T13:38:25.522Z,9.20
2019-03-25T13:40:55.697Z,20.13
2019-03-25T13:43:25.625Z,17.33
2019-03-25T13:46:05.085Z,13.93
2019-03-25T13:48:27.165Z,16.03
2019-03-25T13:50:57.044Z,18.93
2019-03-25T13:53:26.957Z,15.63
2019-03-25T13:55:56.833Z,17.23
2019-03-25T13:58:26.741Z,14.03
2019-03-25T14:00:56.634Z,17.97
2019-03-25T14:03:26.547Z,13.60
2019-03-25T14:05:56.423Z,14.90
2019-03-25T14:08:26.328Z,13.43
2019-03-25T14:10:56.205Z,13.83
2019-03-25T14:13:26.098Z,14.60
2019-03-25T14:15:55.997Z,16.77
2019-03-25T14:18:25.883Z,21.00
2019-03-25T14:20:55.794Z,17.17
2019-03-25T14:23:25.671Z,18.50
2019-03-25T14:25:55.549Z,24.27
2019-03-25T14:28:25.462Z,12.30
2019-03-25T14:30:55.345Z,10.67
2019-03-25T14:33:25.269Z,11.07
2019-03-25T14:35:55.192Z,9.73
2019-03-25T14:38:25.106Z,11.07
2019-03-25T14:40:54.958Z,8.43
2019-03-25T14:43:24.882Z,17.87
2019-03-25T14:45:55.134Z,13.93
2019-03-25T14:48:25.006Z,12.37
2019-03-25T14:50:54.907Z,11.47
2019-03-25T14:53:24.786Z,14.73
2019-03-25T14:55:55.036Z,12.37
2019-03-25T14:58:24.910Z,12.70
2019-03-25T15:00:54.793Z,15.57
2019-03-25T15:03:24.676Z,14.23
2019-03-25T15:05:54.552Z,9.20
2019-03-25T15:08:24.410Z,15.60
2019-03-25T15:10:54.325Z,11.97
2019-03-25T15:13:24.219Z,11.37
2019-03-25T15:15:54.100Z,15.20
2019-03-25T15:18:23.992Z,12.10
2019-03-25T15:20:54.220Z,11.47
2019-03-25T15:23:27.124Z,10.33
2019-03-25T15:25:56.992Z,10.90
2019-03-25T15:28:26.883Z,13.17
2019-03-25T15:30:56.754Z,13.57
2019-03-25T15:33:26.659Z,11.90
2019-03-25T15:35:56.564Z,7.10
2019-03-25T15:38:26.455Z,9.03
2019-03-25T15:40:56.318Z,9.70
2019-03-25T15:43:26.214Z,11.77
2019-03-25T15:45:56.133Z,13.70
2019-03-25T15:48:25.999Z,11.70
2019-03-25T15:50:55.896Z,8.87
2019-03-25T15:53:25.780Z,11.27
2019-03-25T15:55:55.650Z,14.13
2019-03-25T15:58:26.415Z,11.47
2019-03-25T16:00:56.409Z,8.07
2019-03-25T16:03:26.299Z,13.47
2019-03-25T16:05:56.214Z,12.80
2019-03-25T16:08:26.091Z,11.50
2019-03-25T16:10:56.033Z,8.80
2019-03-25T16:13:25.989Z,12.77
2019-03-25T16:15:55.850Z,10.00
2019-03-25T16:18:39.149Z,10.87
2019-03-25T16:21:09.398Z,12.53
2019-03-25T16:23:39.615Z,11.67
2019-03-25T16:26:09.635Z,11.63
2019-03-25T16:28:39.529Z,14.23
2019-03-25T16:31:09.416Z,11.97
2019-03-25T16:33:39.312Z,11.63
2019-03-25T16:36:09.253Z,10.97
2019-03-25T16:38:39.132Z,14.63
2019-03-25T16:41:09.002Z,12.90
2019-03-25T16:43:38.924Z,12.90
2019-03-25T16:46:08.802Z,11.03
2019-03-25T16:48:38.732Z,10.60
2019-03-25T16:51:08.634Z,15.47
2019-03-25T16:53:38.574Z,16.87
2019-03-25T16:56:08.520Z,12.43
2019-03-25T16:58:38.425Z,13.87
2019-03-25T17:01:10.251Z,12.03
2019-03-25T17:03:40.023Z,14.00
2019-03-25T17:06:10.013Z,17.50
2019-03-25T17:08:39.905Z,9.00
2019-03-25T17:11:09.841Z,11.03
2019-03-25T17:13:39.827Z,10.70
2019-03-25T17:16:09.738Z,12.63
2019-03-25T17:18:39.645Z,13.13
2019-03-25T17:21:09.567Z,10.07
2019-03-25T17:23:39.473Z,8.80
2019-03-25T17:26:09.399Z,19.63
2019-03-25T17:28:39.270Z,17.93
2019-03-25T17:31:09.170Z,16.30
2019-03-25T17:33:39.032Z,18.80
2019-03-25T17:36:08.950Z,11.80
2019-03-25T17:38:38.842Z,22.10
2019-03-25T17:41:08.724Z,13.77
2019-03-25T17:43:38.636Z,16.53
2019-03-25T17:46:08.508Z,19.23
2019-03-25T17:48:38.420Z,17.40
2019-03-25T17:51:08.312Z,15.20
2019-03-25T17:53:38.209Z,25.83
2019-03-25T17:56:08.184Z,26.90
2019-03-25T17:58:38.093Z,30.67
2019-03-25T18:01:16.261Z,17.83
2019-03-25T18:03:46.151Z,20.80
2019-03-25T18:06:16.045Z,23.97
2019-03-25T18:08:45.929Z,27.57
2019-03-25T18:11:15.842Z,32.47
2019-03-25T18:13:45.803Z,26.23
2019-03-25T18:16:15.800Z,34.10
2019-03-25T18:18:45.704Z,23.37
2019-03-25T18:21:15.595Z,21.57
2019-03-25T18:23:45.856Z,21.07
2019-03-25T18:26:15.743Z,15.97
2019-03-25T18:28:45.661Z,20.90
2019-03-25T18:31:15.648Z,19.87
2019-03-25T18:33:45.946Z,24.63
2019-03-25T18:36:15.830Z,24.90
2019-03-25T18:38:45.744Z,18.53
2019-03-25T18:41:15.738Z,20.87
2019-03-25T18:43:45.928Z,19.87
2019-03-25T18:46:15.928Z,18.50
2019-03-25T18:48:46.229Z,16.50
2019-03-25T18:51:16.295Z,18.83
2019-03-25T18:53:46.284Z,15.47
2019-03-25T18:56:16.181Z,22.97
2019-03-25T18:58:46.079Z,21.07
2019-03-25T19:01:16.022Z,28.37
2019-03-25T19:03:46.362Z,22.53
2019-03-25T19:06:16.785Z,25.90
2019-03-25T19:08:46.694Z,21.10
2019-03-25T19:11:16.599Z,18.20
2019-03-25T19:13:46.500Z,25.27
2019-03-25T19:16:16.591Z,21.93
2019-03-25T19:18:46.556Z,25.03
2019-03-25T19:21:16.441Z,27.50
2019-03-25T19:23:46.454Z,26.87
2019-03-25T19:26:16.358Z,23.83
2019-03-25T19:28:46.216Z,26.47
2019-03-25T19:31:16.084Z,24.63
2019-03-25T19:33:46.084Z,25.57
2019-03-25T19:36:16.087Z,29.90
2019-03-25T19:38:45.962Z,26.97
2019-03-25T19:41:18.689Z,28.13
2019-03-25T19:43:47.448Z,21.67
2019-03-25T19:46:17.751Z,24.43
2019-03-25T19:48:47.757Z,31.53
2019-03-25T19:51:17.655Z,24.83
2019-03-25T19:53:47.932Z,23.13
2019-03-25T19:56:17.869Z,30.00
2019-03-25T19:58:48.893Z,33.30
2019-03-25T20:01:18.811Z,21.37
2019-03-25T20:03:48.688Z,22.37
2019-03-25T20:06:26.090Z,22.07
2019-03-25T20:08:50.202Z,18.50
2019-03-25T20:11:20.086Z,17.77
2019-03-25T20:13:49.951Z,24.20
2019-03-25T20:16:19.835Z,20.93
2019-03-25T20:18:50.077Z,24.33
2019-03-25T20:21:24.531Z,32.70
2019-03-25T20:23:54.393Z,18.97
2019-03-25T20:26:24.299Z,26.57
2019-03-25T20:28:54.197Z,22.70
2019-03-25T20:31:24.210Z,26.47
2019-03-25T20:33:54.394Z,26.27
2019-03-25T20:36:24.259Z,21.03
2019-03-25T20:38:54.173Z,29.23
2019-03-25T20:41:24.127Z,18.93
2019-03-25T20:43:53.949Z,25.97
2019-03-25T20:46:26.009Z,22.33
2019-03-25T20:48:56.208Z,25.93
2019-03-25T20:51:26.122Z,19.57
2019-03-25T20:53:55.996Z,19.47
2019-03-25T20:56:25.897Z,29.87
2019-03-25T20:58:55.804Z,22.90
2019-03-25T21:01:25.681Z,27.23
2019-03-25T21:03:57.176Z,28.67
2019-03-25T21:06:27.175Z,19.60
2019-03-25T21:08:57.065Z,15.00
2019-03-25T21:11:28.658Z,24.03
2019-03-25T21:14:00.667Z,19.43
2019-03-25T21:16:30.525Z,23.93
2019-03-25T21:19:00.786Z,19.60
2019-03-25T21:21:30.722Z,28.50
2019-03-25T21:24:00.615Z,19.53
2019-03-25T21:26:30.495Z,22.57
2019-03-25T21:29:00.364Z,20.40
2019-03-25T21:31:30.281Z,23.20
2019-03-25T21:34:00.166Z,22.43
2019-03-25T21:36:30.809Z,19.03
2019-03-25T21:39:00.695Z,23.20
2019-03-25T21:41:30.671Z,18.43
2019-03-25T21:44:00.650Z,20.33
2019-03-25T21:46:30.598Z,21.13
2019-03-25T21:49:00.758Z,19.13
2019-03-25T21:51:30.678Z,22.90
2019-03-25T21:54:00.665Z,24.20
2019-03-25T21:56:30.569Z,24.37
2019-03-25T21:59:02.472Z,22.40
2019-03-25T22:01:32.356Z,12.80
2019-03-25T22:04:02.218Z,20.70
2019-03-25T22:06:32.129Z,18.03
2019-03-25T22:09:02.006Z,22.20
2019-03-25T22:11:32.204Z,22.50
2019-03-25T22:14:02.094Z,19.60
2019-03-25T22:16:31.978Z,21.47
2019-03-25T22:19:01.903Z,16.60
2019-03-25T22:21:31.792Z,21.20
2019-03-25T22:24:06.202Z,17.93
2019-03-25T22:26:36.102Z,18.93
2019-03-25T22:29:06.019Z,19.37
2019-03-25T22:31:35.906Z,15.13
2019-03-25T22:34:05.802Z,19.77
2019-03-25T22:36:35.688Z,19.63
2019-03-25T22:39:07.231Z,16.33
2019-03-25T22:41:37.415Z,21.90
2019-03-25T22:44:07.327Z,20.87
2019-03-25T22:46:37.504Z,15.27
2019-03-25T22:49:07.414Z,18.37
2019-03-25T22:51:38.312Z,14.53
2019-03-25T22:54:08.479Z,23.53
2019-03-25T22:56:38.391Z,24.60
2019-03-25T22:59:08.280Z,20.87
2019-03-25T23:01:38.457Z,17.43
2019-03-25T23:04:08.613Z,15.13
2019-03-25T23:06:38.998Z,19.77
2019-03-25T23:09:09.339Z,19.03
2019-03-25T23:11:39.227Z,15.77
2019-03-25T23:14:10.112Z,21.90
2019-03-25T23:16:42.444Z,13.30
2019-03-25T23:19:12.320Z,14.40
2019-03-25T23:21:43.493Z,18.07
2019-03-25T23:24:13.720Z,18.70
2019-03-25T23:26:43.895Z,21.43
2019-03-25T23:29:13.809Z,14.70
2019-03-25T23:31:43.718Z,16.30
2019-03-25T23:34:13.607Z,18.73
2019-03-25T23:36:43.482Z,17.87
2019-03-25T23:39:13.694Z,14.63
2019-03-25T23:41:43.620Z,20.27
2019-03-25T23:44:13.499Z,15.77
2019-03-25T23:46:43.391Z,14.23
2019-03-25T23:49:13.296Z,15.33
2019-03-25T23:51:43.166Z,15.63
2019-03-25T23:54:17.285Z,17.80
2019-03-25T23:56:47.195Z,16.47
2019-03-25T23:59:17.094Z,14.87
